sensor_id;sensor_type;location;lat;lon;timestamp;pressure;altitude;pressure_sealevel;temperature;humidity
11806;BME280;5960;42.602;23.482;2022-11-06T00:00:40;92955.06;;;13.79;64.73
11806;BME280;5960;42.602;23.482;2022-11-06T00:03:08;92953.69;;;13.77;64.68
11806;BME280;5960;42.602;23.482;2022-11-06T00:05:39;92945.75;;;13.77;64.98
11806;BME280;5960;42.602;23.482;2022-11-06T00:08:31;92959.63;;;13.72;64.42
11806;BME280;5960;42.602;23.482;2022-11-06T00:10:59;92958.31;;;13.63;65.59
11806;BME280;5960;42.602;23.482;2022-11-06T00:13:26;92955.28;;;13.59;65.48
11806;BME280;5960;42.602;23.482;2022-11-06T00:15:53;92956.31;;;13.58;65.52
11806;BME280;5960;42.602;23.482;2022-11-06T00:18:19;92959.53;;;13.60;65.26
11806;BME280;5960;42.602;23.482;2022-11-06T00:20:47;92960.53;;;13.66;65.48
11806;BME280;5960;42.602;23.482;2022-11-06T00:23:14;92962.94;;;13.67;65.17
11806;BME280;5960;42.602;23.482;2022-11-06T00:25:41;92956.97;;;13.72;65.17
11806;BME280;5960;42.602;23.482;2022-11-06T00:28:08;92954.91;;;13.74;65.00
11806;BME280;5960;42.602;23.482;2022-11-06T00:30:35;92965.66;;;13.79;64.49
11806;BME280;5960;42.602;23.482;2022-11-06T00:33:02;92950.22;;;13.76;64.75
11806;BME280;5960;42.602;23.482;2022-11-06T00:35:28;92955.16;;;13.73;64.60
11806;BME280;5960;42.602;23.482;2022-11-06T00:37:57;92969.13;;;13.80;64.71
11806;BME280;5960;42.602;23.482;2022-11-06T00:40:23;92971.78;;;13.80;64.70
11806;BME280;5960;42.602;23.482;2022-11-06T00:42:55;92965.50;;;13.74;64.67
11806;BME280;5960;42.602;23.482;2022-11-06T00:45:23;92965.38;;;13.69;64.99
11806;BME280;5960;42.602;23.482;2022-11-06T00:47:50;92961.31;;;13.66;64.96
11806;BME280;5960;42.602;23.482;2022-11-06T00:50:17;92953.88;;;13.75;64.74
11806;BME280;5960;42.602;23.482;2022-11-06T00:52:44;92954.19;;;13.67;64.70
11806;BME280;5960;42.602;23.482;2022-11-06T00:55:12;92952.84;;;13.58;65.31
11806;BME280;5960;42.602;23.482;2022-11-06T00:57:38;92957.13;;;13.59;64.98
11806;BME280;5960;42.602;23.482;2022-11-06T01:00:06;92960.88;;;13.51;65.12
11806;BME280;5960;42.602;23.482;2022-11-06T01:02:35;92957.47;;;13.44;65.81
11806;BME280;5960;42.602;23.482;2022-11-06T01:05:03;92960.81;;;13.32;65.97
11806;BME280;5960;42.602;23.482;2022-11-06T01:07:29;92950.28;;;13.25;66.68
11806;BME280;5960;42.602;23.482;2022-11-06T01:09:56;92942.03;;;13.15;66.93
11806;BME280;5960;42.602;23.482;2022-11-06T01:12:24;92948.28;;;13.21;66.85
11806;BME280;5960;42.602;23.482;2022-11-06T01:14:51;92948.09;;;13.22;66.68
11806;BME280;5960;42.602;23.482;2022-11-06T01:17:18;92946.59;;;13.27;66.90
11806;BME280;5960;42.602;23.482;2022-11-06T01:19:44;92944.56;;;13.29;66.60
11806;BME280;5960;42.602;23.482;2022-11-06T01:22:11;92950.75;;;13.22;66.85
11806;BME280;5960;42.602;23.482;2022-11-06T01:24:38;92954.72;;;13.32;66.68
11806;BME280;5960;42.602;23.482;2022-11-06T01:27:05;92951.69;;;13.28;66.61
11806;BME280;5960;42.602;23.482;2022-11-06T01:29:33;92946.09;;;13.36;66.38
11806;BME280;5960;42.602;23.482;2022-11-06T01:32:00;92939.06;;;13.30;66.95
11806;BME280;5960;42.602;23.482;2022-11-06T01:34:27;92930.91;;;13.32;66.84
11806;BME280;5960;42.602;23.482;2022-11-06T01:36:54;92928.47;;;13.30;66.77
11806;BME280;5960;42.602;23.482;2022-11-06T01:39:21;92945.06;;;13.19;67.37
11806;BME280;5960;42.602;23.482;2022-11-06T01:41:49;92928.31;;;13.25;67.44
11806;BME280;5960;42.602;23.482;2022-11-06T01:47:38;92929.09;;;13.07;68.24
11806;BME280;5960;42.602;23.482;2022-11-06T01:50:07;92931.53;;;13.08;68.23
11806;BME280;5960;42.602;23.482;2022-11-06T01:52:35;92930.53;;;13.03;69.10
11806;BME280;5960;42.602;23.482;2022-11-06T01:55:10;92925.50;;;13.01;68.68
11806;BME280;5960;42.602;23.482;2022-11-06T01:57:39;92933.84;;;12.98;69.33
11806;BME280;5960;42.602;23.482;2022-11-06T02:00:07;92934.06;;;12.97;69.53
11806;BME280;5960;42.602;23.482;2022-11-06T02:02:34;92929.41;;;12.92;69.88
11806;BME280;5960;42.602;23.482;2022-11-06T02:05:04;92932.47;;;12.96;69.75
11806;BME280;5960;42.602;23.482;2022-11-06T02:07:32;92931.00;;;13.00;69.44
11806;BME280;5960;42.602;23.482;2022-11-06T02:09:59;92919.97;;;13.03;69.43
11806;BME280;5960;42.602;23.482;2022-11-06T02:12:35;92922.69;;;12.96;69.89
11806;BME280;5960;42.602;23.482;2022-11-06T02:15:09;92927.59;;;12.92;70.08
11806;BME280;5960;42.602;23.482;2022-11-06T02:17:56;92922.41;;;12.79;70.38
11806;BME280;5960;42.602;23.482;2022-11-06T02:20:34;92918.13;;;12.78;70.85
11806;BME280;5960;42.602;23.482;2022-11-06T02:23:24;92927.56;;;12.74;70.75
11806;BME280;5960;42.602;23.482;2022-11-06T02:26:04;92919.63;;;12.74;71.23
11806;BME280;5960;42.602;23.482;2022-11-06T02:28:38;92914.97;;;12.69;71.13
11806;BME280;5960;42.602;23.482;2022-11-06T02:31:10;92926.00;;;12.59;72.00
11806;BME280;5960;42.602;23.482;2022-11-06T02:33:44;92923.00;;;12.56;71.82
11806;BME280;5960;42.602;23.482;2022-11-06T02:36:16;92915.13;;;12.49;72.81
11806;BME280;5960;42.602;23.482;2022-11-06T02:38:47;92916.34;;;12.46;72.96
11806;BME280;5960;42.602;23.482;2022-11-06T02:41:19;92927.38;;;12.43;73.61
11806;BME280;5960;42.602;23.482;2022-11-06T02:43:52;92948.09;;;12.40;74.52
11806;BME280;5960;42.602;23.482;2022-11-06T02:46:25;92925.63;;;12.30;74.97
11806;BME280;5960;42.602;23.482;2022-11-06T02:48:55;92935.97;;;12.32;75.65
11806;BME280;5960;42.602;23.482;2022-11-06T02:51:27;92936.59;;;12.27;76.41
11806;BME280;5960;42.602;23.482;2022-11-06T02:53:59;92929.88;;;12.31;76.34
11806;BME280;5960;42.602;23.482;2022-11-06T02:56:32;92917.09;;;12.28;76.74
11806;BME280;5960;42.602;23.482;2022-11-06T02:59:04;92944.72;;;12.26;75.78
11806;BME280;5960;42.602;23.482;2022-11-06T03:01:35;92957.72;;;12.27;76.07
11806;BME280;5960;42.602;23.482;2022-11-06T03:04:10;92957.88;;;12.32;76.46
11806;BME280;5960;42.602;23.482;2022-11-06T03:06:41;92959.16;;;12.23;76.35
11806;BME280;5960;42.602;23.482;2022-11-06T03:09:13;92967.47;;;12.27;77.04
11806;BME280;5960;42.602;23.482;2022-11-06T03:11:40;92966.25;;;12.29;77.25
11806;BME280;5960;42.602;23.482;2022-11-06T03:14:12;92966.50;;;12.21;77.55
11806;BME280;5960;42.602;23.482;2022-11-06T03:16:51;92966.66;;;12.26;77.45
11806;BME280;5960;42.602;23.482;2022-11-06T03:19:23;92974.59;;;12.26;77.74
11806;BME280;5960;42.602;23.482;2022-11-06T03:21:57;92967.09;;;12.23;78.41
11806;BME280;5960;42.602;23.482;2022-11-06T03:24:30;92977.41;;;12.31;77.97
11806;BME280;5960;42.602;23.482;2022-11-06T03:27:06;92980.03;;;12.38;77.91
11806;BME280;5960;42.602;23.482;2022-11-06T03:29:38;92974.09;;;12.43;77.97
11806;BME280;5960;42.602;23.482;2022-11-06T03:32:13;92982.78;;;12.50;78.02
11806;BME280;5960;42.602;23.482;2022-11-06T03:34:45;92980.72;;;12.59;77.27
11806;BME280;5960;42.602;23.482;2022-11-06T03:37:19;92988.41;;;12.60;77.33
11806;BME280;5960;42.602;23.482;2022-11-06T03:39:51;92999.56;;;12.62;77.28
11806;BME280;5960;42.602;23.482;2022-11-06T03:42:21;92996.88;;;12.76;76.34
11806;BME280;5960;42.602;23.482;2022-11-06T03:44:55;92995.66;;;12.72;76.69
11806;BME280;5960;42.602;23.482;2022-11-06T03:47:25;92996.88;;;12.69;76.27
11806;BME280;5960;42.602;23.482;2022-11-06T03:49:59;92982.38;;;12.46;77.39
11806;BME280;5960;42.602;23.482;2022-11-06T03:52:29;92987.06;;;12.44;77.15
11806;BME280;5960;42.602;23.482;2022-11-06T03:54:59;92980.22;;;12.37;77.25
11806;BME280;5960;42.602;23.482;2022-11-06T03:57:34;92972.50;;;12.35;77.64
11806;BME280;5960;42.602;23.482;2022-11-06T04:00:05;92979.34;;;12.49;76.62
11806;BME280;5960;42.602;23.482;2022-11-06T04:02:35;92972.09;;;12.38;77.16
11806;BME280;5960;42.602;23.482;2022-11-06T04:05:07;92980.63;;;12.33;77.64
11806;BME280;5960;42.602;23.482;2022-11-06T04:07:38;92983.69;;;12.37;77.40
11806;BME280;5960;42.602;23.482;2022-11-06T04:10:09;92987.06;;;12.51;77.26
11806;BME280;5960;42.602;23.482;2022-11-06T04:12:56;92987.22;;;12.56;76.81
11806;BME280;5960;42.602;23.482;2022-11-06T04:15:47;92991.28;;;12.59;76.75
11806;BME280;5960;42.602;23.482;2022-11-06T04:18:17;93001.00;;;12.65;76.39
11806;BME280;5960;42.602;23.482;2022-11-06T04:20:48;92997.34;;;12.59;76.21
11806;BME280;5960;42.602;23.482;2022-11-06T04:23:44;92993.75;;;12.54;75.88
11806;BME280;5960;42.602;23.482;2022-11-06T04:26:39;93000.41;;;12.56;76.23
11806;BME280;5960;42.602;23.482;2022-11-06T04:29:17;93000.03;;;12.53;76.20
11806;BME280;5960;42.602;23.482;2022-11-06T04:31:53;93001.44;;;12.55;76.10
11806;BME280;5960;42.602;23.482;2022-11-06T04:34:30;93002.09;;;12.51;76.35
11806;BME280;5960;42.602;23.482;2022-11-06T04:37:05;92997.16;;;12.61;76.20
11806;BME280;5960;42.602;23.482;2022-11-06T04:39:39;92997.34;;;12.59;75.93
11806;BME280;5960;42.602;23.482;2022-11-06T04:42:11;92996.38;;;12.54;75.76
11806;BME280;5960;42.602;23.482;2022-11-06T04:44:43;92996.19;;;12.48;75.81
11806;BME280;5960;42.602;23.482;2022-11-06T04:47:17;92997.44;;;12.46;76.42
11806;BME280;5960;42.602;23.482;2022-11-06T04:49:44;93004.94;;;12.49;75.70
11806;BME280;5960;42.602;23.482;2022-11-06T04:52:17;93000.09;;;12.46;76.50
11806;BME280;5960;42.602;23.482;2022-11-06T04:54:45;92991.19;;;12.33;77.47
11806;BME280;5960;42.602;23.482;2022-11-06T04:57:12;92994.25;;;12.37;77.46
11806;BME280;5960;42.602;23.482;2022-11-06T04:59:39;93004.16;;;12.42;78.05
11806;BME280;5960;42.602;23.482;2022-11-06T05:02:06;92994.19;;;12.44;78.33
11806;BME280;5960;42.602;23.482;2022-11-06T05:04:34;93005.59;;;12.38;78.87
11806;BME280;5960;42.602;23.482;2022-11-06T05:07:01;92999.66;;;12.49;78.62
11806;BME280;5960;42.602;23.482;2022-11-06T05:09:28;93007.19;;;12.52;78.60
11806;BME280;5960;42.602;23.482;2022-11-06T05:11:55;93003.94;;;12.50;78.36
11806;BME280;5960;42.602;23.482;2022-11-06T05:14:22;93008.00;;;12.46;78.86
11806;BME280;5960;42.602;23.482;2022-11-06T05:16:48;93010.72;;;12.32;79.80
11806;BME280;5960;42.602;23.482;2022-11-06T05:19:15;93014.97;;;12.40;80.42
11806;BME280;5960;42.602;23.482;2022-11-06T05:21:43;93020.44;;;12.39;80.95
11806;BME280;5960;42.602;23.482;2022-11-06T05:24:27;93030.25;;;12.25;81.73
11806;BME280;5960;42.602;23.482;2022-11-06T05:26:54;93034.94;;;12.23;82.75
11806;BME280;5960;42.602;23.482;2022-11-06T05:29:21;93035.94;;;12.28;82.17
11806;BME280;5960;42.602;23.482;2022-11-06T05:31:47;93042.41;;;12.32;82.37
11806;BME280;5960;42.602;23.482;2022-11-06T05:34:14;93041.97;;;12.36;82.67
11806;BME280;5960;42.602;23.482;2022-11-06T05:36:42;93038.31;;;12.43;82.76
11806;BME280;5960;42.602;23.482;2022-11-06T05:39:09;93041.47;;;12.59;81.87
11806;BME280;5960;42.602;23.482;2022-11-06T05:41:36;93048.44;;;12.53;82.43
11806;BME280;5960;42.602;23.482;2022-11-06T05:44:03;93047.75;;;12.64;82.09
11806;BME280;5960;42.602;23.482;2022-11-06T05:46:29;93049.88;;;12.49;81.91
11806;BME280;5960;42.602;23.482;2022-11-06T05:48:56;93050.06;;;12.54;81.88
11806;BME280;5960;42.602;23.482;2022-11-06T05:51:23;93053.25;;;12.56;82.54
11806;BME280;5960;42.602;23.482;2022-11-06T05:53:51;93050.63;;;12.56;82.43
11806;BME280;5960;42.602;23.482;2022-11-06T05:56:18;93060.22;;;12.51;82.52
11806;BME280;5960;42.602;23.482;2022-11-06T05:58:45;93063.28;;;12.47;83.11
11806;BME280;5960;42.602;23.482;2022-11-06T06:01:12;93068.28;;;12.62;82.51
11806;BME280;5960;42.602;23.482;2022-11-06T06:03:38;93078.03;;;12.69;81.79
11806;BME280;5960;42.602;23.482;2022-11-06T06:06:05;93071.72;;;12.70;82.55
11806;BME280;5960;42.602;23.482;2022-11-06T06:08:32;93075.34;;;12.75;82.13
11806;BME280;5960;42.602;23.482;2022-11-06T06:11:04;93073.00;;;12.92;81.10
11806;BME280;5960;42.602;23.482;2022-11-06T06:13:31;93077.88;;;12.96;81.28
11806;BME280;5960;42.602;23.482;2022-11-06T06:16:00;93082.88;;;13.04;80.87
11806;BME280;5960;42.602;23.482;2022-11-06T06:18:27;93082.22;;;13.15;79.90
11806;BME280;5960;42.602;23.482;2022-11-06T06:20:56;93083.19;;;13.21;79.55
11806;BME280;5960;42.602;23.482;2022-11-06T06:23:23;93089.84;;;13.30;79.17
11806;BME280;5960;42.602;23.482;2022-11-06T06:25:50;93097.72;;;13.44;78.23
11806;BME280;5960;42.602;23.482;2022-11-06T06:28:18;93103.19;;;13.49;78.16
11806;BME280;5960;42.602;23.482;2022-11-06T06:30:45;93102.81;;;13.45;76.85
11806;BME280;5960;42.602;23.482;2022-11-06T06:33:11;93103.13;;;13.56;76.74
11806;BME280;5960;42.602;23.482;2022-11-06T06:35:38;93109.00;;;13.58;76.33
11806;BME280;5960;42.602;23.482;2022-11-06T06:38:05;93114.91;;;13.60;76.29
11806;BME280;5960;42.602;23.482;2022-11-06T06:40:32;93113.28;;;13.59;76.03
11806;BME280;5960;42.602;23.482;2022-11-06T06:42:58;93124.63;;;13.66;76.27
11806;BME280;5960;42.602;23.482;2022-11-06T06:45:26;93126.34;;;13.53;76.50
11806;BME280;5960;42.602;23.482;2022-11-06T06:47:53;93125.00;;;13.69;76.39
11806;BME280;5960;42.602;23.482;2022-11-06T06:50:20;93128.72;;;13.62;77.06
11806;BME280;5960;42.602;23.482;2022-11-06T06:52:47;93127.59;;;13.76;76.85
11806;BME280;5960;42.602;23.482;2022-11-06T06:55:13;93129.03;;;13.72;76.88
11806;BME280;5960;42.602;23.482;2022-11-06T06:57:40;93132.44;;;13.79;76.61
11806;BME280;5960;42.602;23.482;2022-11-06T07:00:08;93137.69;;;13.86;76.89
11806;BME280;5960;42.602;23.482;2022-11-06T07:02:36;93140.56;;;13.84;76.63
11806;BME280;5960;42.602;23.482;2022-11-06T07:05:03;93134.22;;;13.86;76.73
11806;BME280;5960;42.602;23.482;2022-11-06T07:07:30;93130.63;;;13.80;76.99
11806;BME280;5960;42.602;23.482;2022-11-06T07:09:57;93139.97;;;13.82;77.44
11806;BME280;5960;42.602;23.482;2022-11-06T07:12:24;93137.44;;;13.69;77.95
11806;BME280;5960;42.602;23.482;2022-11-06T07:14:51;93137.44;;;13.69;78.29
11806;BME280;5960;42.602;23.482;2022-11-06T07:17:17;93145.56;;;13.67;78.22
11806;BME280;5960;42.602;23.482;2022-11-06T07:19:45;93147.56;;;13.72;78.91
11806;BME280;5960;42.602;23.482;2022-11-06T07:22:12;93154.53;;;13.66;79.05
11806;BME280;5960;42.602;23.482;2022-11-06T07:24:39;93147.38;;;13.74;79.14
11806;BME280;5960;42.602;23.482;2022-11-06T07:27:06;93151.31;;;13.90;78.46
11806;BME280;5960;42.602;23.482;2022-11-06T07:29:32;93149.78;;;14.01;77.75
11806;BME280;5960;42.602;23.482;2022-11-06T07:31:59;93154.94;;;13.95;77.97
11806;BME280;5960;42.602;23.482;2022-11-06T07:34:26;93159.56;;;14.00;78.24
11806;BME280;5960;42.602;23.482;2022-11-06T07:36:54;93164.75;;;13.88;78.98
11806;BME280;5960;42.602;23.482;2022-11-06T07:39:21;93165.59;;;13.82;79.66
11806;BME280;5960;42.602;23.482;2022-11-06T07:41:47;93177.28;;;13.74;80.65
11806;BME280;5960;42.602;23.482;2022-11-06T07:44:14;93174.16;;;13.59;81.86
11806;BME280;5960;42.602;23.482;2022-11-06T07:46:41;93170.06;;;13.24;83.04
11806;BME280;5960;42.602;23.482;2022-11-06T07:49:08;93167.97;;;13.33;83.52
11806;BME280;5960;42.602;23.482;2022-11-06T07:51:35;93167.31;;;13.37;83.47
11806;BME280;5960;42.602;23.482;2022-11-06T07:54:03;93174.03;;;13.40;83.06
11806;BME280;5960;42.602;23.482;2022-11-06T07:56:30;93177.63;;;13.52;83.83
11806;BME280;5960;42.602;23.482;2022-11-06T07:58:57;93167.22;;;13.58;83.21
11806;BME280;5960;42.602;23.482;2022-11-06T08:01:23;93159.00;;;13.41;83.33
11806;BME280;5960;42.602;23.482;2022-11-06T08:03:50;93160.22;;;13.38;83.31
11806;BME280;5960;42.602;23.482;2022-11-06T08:06:17;93159.47;;;13.24;83.63
11806;BME280;5960;42.602;23.482;2022-11-06T08:08:44;93152.00;;;13.14;83.11
11806;BME280;5960;42.602;23.482;2022-11-06T08:11:13;93145.47;;;13.17;82.93
11806;BME280;5960;42.602;23.482;2022-11-06T08:13:40;93155.91;;;13.12;83.15
11806;BME280;5960;42.602;23.482;2022-11-06T08:16:08;93161.81;;;13.07;83.46
11806;BME280;5960;42.602;23.482;2022-11-06T08:18:35;93175.81;;;13.14;84.23
11806;BME280;5960;42.602;23.482;2022-11-06T08:21:03;93185.19;;;13.10;85.09
11806;BME280;5960;42.602;23.482;2022-11-06T08:23:30;93192.19;;;12.98;86.10
11806;BME280;5960;42.602;23.482;2022-11-06T08:25:59;93184.44;;;12.96;86.64
11806;BME280;5960;42.602;23.482;2022-11-06T08:28:27;93204.19;;;12.93;87.40
11806;BME280;5960;42.602;23.482;2022-11-06T08:30:55;93210.06;;;12.96;87.92
11806;BME280;5960;42.602;23.482;2022-11-06T08:33:22;93206.22;;;12.91;87.82
11806;BME280;5960;42.602;23.482;2022-11-06T08:35:49;93209.06;;;12.90;87.70
11806;BME280;5960;42.602;23.482;2022-11-06T08:38:16;93210.91;;;12.89;88.58
11806;BME280;5960;42.602;23.482;2022-11-06T08:40:43;93218.63;;;12.98;87.80
11806;BME280;5960;42.602;23.482;2022-11-06T08:43:09;93212.13;;;12.93;88.85
11806;BME280;5960;42.602;23.482;2022-11-06T08:45:39;93217.00;;;12.97;88.30
11806;BME280;5960;42.602;23.482;2022-11-06T08:48:06;93214.50;;;13.02;89.07
11806;BME280;5960;42.602;23.482;2022-11-06T08:50:35;93213.94;;;13.00;88.16
11806;BME280;5960;42.602;23.482;2022-11-06T08:53:03;93211.94;;;12.88;87.60
11806;BME280;5960;42.602;23.482;2022-11-06T08:55:31;93216.41;;;12.81;86.96
11806;BME280;5960;42.602;23.482;2022-11-06T08:57:58;93222.31;;;12.83;87.28
11806;BME280;5960;42.602;23.482;2022-11-06T09:00:25;93214.56;;;12.88;87.16
11806;BME280;5960;42.602;23.482;2022-11-06T09:02:58;93215.16;;;12.97;85.55
11806;BME280;5960;42.602;23.482;2022-11-06T09:05:25;93216.56;;;13.00;85.93
11806;BME280;5960;42.602;23.482;2022-11-06T09:07:52;93211.28;;;13.00;83.94
11806;BME280;5960;42.602;23.482;2022-11-06T09:10:18;93207.41;;;13.02;85.02
11806;BME280;5960;42.602;23.482;2022-11-06T09:12:45;93210.66;;;13.04;84.56
11806;BME280;5960;42.602;23.482;2022-11-06T09:15:12;93211.47;;;12.98;83.63
11806;BME280;5960;42.602;23.482;2022-11-06T09:17:43;93208.00;;;13.04;83.50
11806;BME280;5960;42.602;23.482;2022-11-06T09:20:12;93206.97;;;13.05;83.16
11806;BME280;5960;42.602;23.482;2022-11-06T09:22:39;93214.88;;;13.12;83.90
11806;BME280;5960;42.602;23.482;2022-11-06T09:25:07;93218.94;;;13.15;82.41
11806;BME280;5960;42.602;23.482;2022-11-06T09:27:41;93218.13;;;13.14;81.94
11806;BME280;5960;42.602;23.482;2022-11-06T09:30:09;93218.78;;;13.03;81.96
11806;BME280;5960;42.602;23.482;2022-11-06T09:32:37;93225.91;;;13.02;81.84
11806;BME280;5960;42.602;23.482;2022-11-06T09:35:04;93221.00;;;13.06;81.62
11806;BME280;5960;42.602;23.482;2022-11-06T09:37:32;93221.41;;;13.09;82.25
11806;BME280;5960;42.602;23.482;2022-11-06T09:39:59;93219.16;;;13.13;82.19
11806;BME280;5960;42.602;23.482;2022-11-06T09:42:35;93225.38;;;13.25;81.40
11806;BME280;5960;42.602;23.482;2022-11-06T09:45:11;93230.47;;;13.27;81.23
11806;BME280;5960;42.602;23.482;2022-11-06T09:47:44;93231.91;;;13.23;81.16
11806;BME280;5960;42.602;23.482;2022-11-06T09:50:16;93218.47;;;13.24;82.10
11806;BME280;5960;42.602;23.482;2022-11-06T09:52:49;93217.03;;;13.35;81.83
11806;BME280;5960;42.602;23.482;2022-11-06T09:55:20;93208.47;;;13.33;81.15
11806;BME280;5960;42.602;23.482;2022-11-06T09:57:51;93212.38;;;13.24;81.61
11806;BME280;5960;42.602;23.482;2022-11-06T10:00:20;93206.72;;;13.14;80.96
11806;BME280;5960;42.602;23.482;2022-11-06T10:02:49;93207.31;;;13.22;81.09
11806;BME280;5960;42.602;23.482;2022-11-06T10:05:23;93211.13;;;13.33;80.51
11806;BME280;5960;42.602;23.482;2022-11-06T10:07:53;93214.88;;;13.58;80.03
11806;BME280;5960;42.602;23.482;2022-11-06T10:10:27;93216.50;;;13.59;78.96
11806;BME280;5960;42.602;23.482;2022-11-06T10:13:10;93210.81;;;13.55;78.43
11806;BME280;5960;42.602;23.482;2022-11-06T10:15:44;93207.28;;;13.68;78.95
11806;BME280;5960;42.602;23.482;2022-11-06T10:18:23;93217.16;;;13.79;77.48
11806;BME280;5960;42.602;23.482;2022-11-06T10:21:01;93213.31;;;13.75;76.90
11806;BME280;5960;42.602;23.482;2022-11-06T10:23:42;93219.38;;;13.57;77.11
11806;BME280;5960;42.602;23.482;2022-11-06T10:26:14;93217.53;;;13.58;77.14
11806;BME280;5960;42.602;23.482;2022-11-06T10:29:06;93219.56;;;13.56;77.61
11806;BME280;5960;42.602;23.482;2022-11-06T10:31:42;93224.00;;;13.62;77.19
11806;BME280;5960;42.602;23.482;2022-11-06T10:34:14;93218.34;;;13.58;77.46
11806;BME280;5960;42.602;23.482;2022-11-06T10:36:46;93221.69;;;13.72;77.58
11806;BME280;5960;42.602;23.482;2022-11-06T10:39:17;93222.09;;;13.76;77.01
11806;BME280;5960;42.602;23.482;2022-11-06T10:41:50;93218.91;;;13.60;76.99
11806;BME280;5960;42.602;23.482;2022-11-06T10:44:22;93224.00;;;13.62;77.91
11806;BME280;5960;42.602;23.482;2022-11-06T10:46:52;93221.88;;;13.77;76.82
11806;BME280;5960;42.602;23.482;2022-11-06T10:49:29;93227.75;;;13.79;76.53
11806;BME280;5960;42.602;23.482;2022-11-06T10:52:27;93226.31;;;13.83;76.17
11806;BME280;5960;42.602;23.482;2022-11-06T10:55:12;93229.81;;;13.77;76.53
11806;BME280;5960;42.602;23.482;2022-11-06T10:57:51;93232.47;;;13.77;76.06
11806;BME280;5960;42.602;23.482;2022-11-06T11:00:20;93227.16;;;13.77;76.94
11806;BME280;5960;42.602;23.482;2022-11-06T11:02:50;93231.78;;;13.89;76.16
11806;BME280;5960;42.602;23.482;2022-11-06T11:05:19;93233.28;;;13.78;75.39
11806;BME280;5960;42.602;23.482;2022-11-06T11:07:48;93226.38;;;13.77;75.89
11806;BME280;5960;42.602;23.482;2022-11-06T11:10:28;93231.38;;;13.85;75.82
11806;BME280;5960;42.602;23.482;2022-11-06T11:12:57;93222.22;;;13.88;75.09
11806;BME280;5960;42.602;23.482;2022-11-06T11:15:25;93226.72;;;13.80;75.49
11806;BME280;5960;42.602;23.482;2022-11-06T11:18:15;93222.22;;;13.88;75.76
11806;BME280;5960;42.602;23.482;2022-11-06T11:20:44;93222.47;;;14.05;75.40
11806;BME280;5960;42.602;23.482;2022-11-06T11:23:16;93222.31;;;14.25;74.21
11806;BME280;5960;42.602;23.482;2022-11-06T11:25:46;93217.25;;;14.23;73.37
11806;BME280;5960;42.602;23.482;2022-11-06T11:28:23;93216.44;;;13.97;72.96
11806;BME280;5960;42.602;23.482;2022-11-06T11:30:52;93216.56;;;13.77;74.02
11806;BME280;5960;42.602;23.482;2022-11-06T11:33:23;93215.50;;;13.85;73.52
11806;BME280;5960;42.602;23.482;2022-11-06T11:35:52;93218.69;;;13.94;73.68
11806;BME280;5960;42.602;23.482;2022-11-06T11:38:20;93218.84;;;13.99;74.39
11806;BME280;5960;42.602;23.482;2022-11-06T11:40:48;93221.34;;;13.94;74.74
11806;BME280;5960;42.602;23.482;2022-11-06T11:43:24;93212.63;;;14.12;74.66
11806;BME280;5960;42.602;23.482;2022-11-06T11:46:04;93216.41;;;14.23;72.66
11806;BME280;5960;42.602;23.482;2022-11-06T11:48:42;93218.81;;;14.31;73.02
11806;BME280;5960;42.602;23.482;2022-11-06T11:51:30;93219.34;;;14.40;72.46
11806;BME280;5960;42.602;23.482;2022-11-06T11:54:02;93220.81;;;14.54;71.01
11806;BME280;5960;42.602;23.482;2022-11-06T11:56:31;93221.03;;;14.53;72.03
11806;BME280;5960;42.602;23.482;2022-11-06T11:58:59;93220.81;;;14.54;72.24
11806;BME280;5960;42.602;23.482;2022-11-06T12:01:34;93216.22;;;14.68;73.87
11806;BME280;5960;42.602;23.482;2022-11-06T12:04:08;93216.88;;;14.82;74.97
11806;BME280;5960;42.602;23.482;2022-11-06T12:06:49;93213.97;;;14.91;75.21
11806;BME280;5960;42.602;23.482;2022-11-06T12:09:16;93209.94;;;15.00;75.35
11806;BME280;5960;42.602;23.482;2022-11-06T12:11:45;93213.34;;;15.07;75.27
11806;BME280;5960;42.602;23.482;2022-11-06T12:14:16;93214.16;;;15.08;74.75
11806;BME280;5960;42.602;23.482;2022-11-06T12:16:46;93207.81;;;15.09;75.02
11806;BME280;5960;42.602;23.482;2022-11-06T12:19:15;93205.44;;;15.19;74.67
11806;BME280;5960;42.602;23.482;2022-11-06T12:21:45;93205.88;;;15.16;74.05
11806;BME280;5960;42.602;23.482;2022-11-06T12:24:17;93206.63;;;15.23;73.54
11806;BME280;5960;42.602;23.482;2022-11-06T12:26:50;93209.78;;;15.32;73.54
11806;BME280;5960;42.602;23.482;2022-11-06T12:29:24;93212.56;;;15.37;74.17
11806;BME280;5960;42.602;23.482;2022-11-06T12:31:57;93221.25;;;15.44;73.89
11806;BME280;5960;42.602;23.482;2022-11-06T12:34:38;93213.91;;;15.58;72.83
11806;BME280;5960;42.602;23.482;2022-11-06T12:37:19;93223.59;;;15.53;73.18
11806;BME280;5960;42.602;23.482;2022-11-06T12:39:55;93219.59;;;15.62;72.01
11806;BME280;5960;42.602;23.482;2022-11-06T12:42:29;93212.63;;;15.49;72.44
11806;BME280;5960;42.602;23.482;2022-11-06T12:44:57;93218.06;;;15.54;72.36
11806;BME280;5960;42.602;23.482;2022-11-06T12:47:35;93217.84;;;15.56;72.02
11806;BME280;5960;42.602;23.482;2022-11-06T12:50:21;93210.63;;;15.44;72.82
11806;BME280;5960;42.602;23.482;2022-11-06T12:53:02;93206.72;;;15.47;72.83
11806;BME280;5960;42.602;23.482;2022-11-06T12:55:32;93220.44;;;15.44;73.35
11806;BME280;5960;42.602;23.482;2022-11-06T12:58:25;93215.22;;;15.37;73.42
11806;BME280;5960;42.602;23.482;2022-11-06T13:01:00;93221.28;;;15.26;72.80
11806;BME280;5960;42.602;23.482;2022-11-06T13:03:40;93226.59;;;15.26;72.62
11806;BME280;5960;42.602;23.482;2022-11-06T13:06:13;93228.97;;;15.15;72.58
11806;BME280;5960;42.602;23.482;2022-11-06T13:08:48;93239.50;;;15.22;73.46
11806;BME280;5960;42.602;23.482;2022-11-06T13:11:26;93233.63;;;14.83;70.24
11806;BME280;5960;42.602;23.482;2022-11-06T13:14:08;93236.69;;;14.61;70.75
11806;BME280;5960;42.602;23.482;2022-11-06T13:16:41;93233.94;;;14.49;70.58
11806;BME280;5960;42.602;23.482;2022-11-06T13:19:18;93236.19;;;14.45;70.29
11806;BME280;5960;42.602;23.482;2022-11-06T13:22:06;93236.63;;;14.42;70.89